Time;durP1;ratioP1;P1;durP2;ratioP2;P2;SDS_P1;SDS_P2;PMS_P1;PMS_P2;Temp;Humidity;BMP_temperature;BMP_pressure;BME280_temperature;BME280_humidity;BME280_pressure;Samples;Min_cycle;Max_cycle;Signal;HPM_P1;HPM_P2
2023/10/23 00:02:15;;;;;;;;;;;;;;;29.37;23.89;98007.72;5096627;28;20368;-96
2023/10/23 00:04:41;;;;;;;;;;;;;;;29.46;23.53;98006.94;5111529;28;19927;-96
2023/10/23 00:07:07;;;;;;;;;;;;;;;29.52;23.61;98007.88;5099324;28;19908;-96
2023/10/23 00:09:33;;;;;;;;;;;;;;;29.52;23.36;98013.53;5107297;28;19920;-96
2023/10/23 00:11:59;;;;;;;;;;;;;;;29.25;23.59;98025.63;5102474;28;20380;-95
2023/10/23 00:14:25;;;;;;;;;;;;;;;29.19;23.88;98019.84;5080045;28;19931;-95
2023/10/23 00:16:52;;;;;;;;;;;;;;;28.63;24.91;98022.22;5084199;28;19999;-96
2023/10/23 00:19:18;;;;;;;;;;;;;;;28.40;24.91;98017.09;5088588;28;19920;-95
2023/10/23 00:21:44;;;;;;;;;;;;;;;28.49;25.24;98017.13;5084250;28;20410;-96
2023/10/23 00:24:10;;;;;;;;;;;;;;;28.58;24.50;98019.97;5092448;28;19939;-95
2023/10/23 00:26:37;;;;;;;;;;;;;;;28.74;24.48;98022.56;5087293;28;20340;-96
2023/10/23 00:29:03;;;;;;;;;;;;;;;28.82;24.43;98023.06;5089472;28;19979;-95
2023/10/23 00:31:29;;;;;;;;;;;;;;;28.88;24.55;98019.13;5088990;28;19916;-95
2023/10/23 00:33:55;;;;;;;;;;;;;;;28.95;24.67;98023.69;5090664;28;19916;-95
2023/10/23 00:36:21;;;;;;;;;;;;;;;29.04;24.36;98030.16;5094568;28;19971;-96
2023/10/23 00:38:47;;;;;;;;;;;;;;;29.20;24.00;98024.22;5087081;28;19916;-95
2023/10/23 00:41:13;;;;;;;;;;;;;;;29.21;23.39;98025.81;5080635;28;19927;-95
2023/10/23 00:43:39;;;;;;;;;;;;;;;29.24;23.58;98032.56;5082704;28;19921;-95
2023/10/23 00:46:15;;;;;;;;;;;;;;;29.30;23.30;98027.84;5086344;28;19920;-95
2023/10/23 00:48:42;;;;;;;;;;;;;;;29.37;23.58;98031.16;5077961;28;19932;-95
2023/10/23 00:51:10;;;;;;;;;;;;;;;29.16;23.53;98036.91;5078855;28;19928;-96
2023/10/23 00:53:37;;;;;;;;;;;;;;;28.94;23.71;98037.03;5085408;28;19921;-96
2023/10/23 00:56:07;;;;;;;;;;;;;;;28.88;24.47;98035.31;5089020;28;19928;-96
2023/10/23 00:58:37;;;;;;;;;;;;;;;29.11;23.76;98046.81;5096160;28;19979;-94
2023/10/23 01:01:03;;;;;;;;;;;;;;;29.18;23.90;98042.91;5085932;28;19928;-94
2023/10/23 01:03:29;;;;;;;;;;;;;;;29.07;23.85;98040.53;5082529;28;19920;-95
2023/10/23 01:05:55;;;;;;;;;;;;;;;28.76;24.08;98039.81;5083411;28;19975;-96
2023/10/23 01:08:21;;;;;;;;;;;;;;;28.96;23.88;98042.25;5085066;28;19920;-96
2023/10/23 01:10:48;;;;;;;;;;;;;;;28.70;24.46;98038.88;5078298;28;19974;-95
2023/10/23 01:13:14;;;;;;;;;;;;;;;28.79;24.77;98035.28;5078449;28;19920;-96
2023/10/23 01:15:40;;;;;;;;;;;;;;;28.89;24.54;98045.38;5086910;28;19923;-96
2023/10/23 01:18:06;;;;;;;;;;;;;;;29.15;24.10;98046.66;5092885;28;19920;-95
2023/10/23 01:20:32;;;;;;;;;;;;;;;29.36;24.35;98052.19;5094556;28;20311;-96
2023/10/23 01:22:58;;;;;;;;;;;;;;;29.53;23.99;98043.41;5091813;28;19921;-96
2023/10/23 01:25:25;;;;;;;;;;;;;;;29.47;23.97;98051.75;5088905;28;19958;-96
2023/10/23 01:27:51;;;;;;;;;;;;;;;29.47;23.63;98050.94;5083632;28;19917;-96
2023/10/23 01:30:17;;;;;;;;;;;;;;;29.52;23.84;98055.97;5100636;28;19931;-96
2023/10/23 01:32:43;;;;;;;;;;;;;;;29.68;23.58;98050.00;5084351;28;20433;-96
2023/10/23 01:35:09;;;;;;;;;;;;;;;29.76;23.34;98051.25;5085699;28;19943;-96
2023/10/23 01:37:35;;;;;;;;;;;;;;;29.19;23.74;98053.78;5080248;28;19925;-96
2023/10/23 01:40:02;;;;;;;;;;;;;;;29.31;23.96;98047.16;5080143;28;19928;-96
2023/10/23 01:42:30;;;;;;;;;;;;;;;29.50;23.33;98050.03;5087038;28;19945;-96
2023/10/23 01:44:56;;;;;;;;;;;;;;;29.52;23.31;98053.94;5089323;28;19920;-96
2023/10/23 01:47:22;;;;;;;;;;;;;;;29.58;23.17;98051.25;5087565;28;19917;-96
2023/10/23 01:49:49;;;;;;;;;;;;;;;29.65;23.34;98053.78;5083467;28;19924;-96
2023/10/23 01:52:15;;;;;;;;;;;;;;;29.63;23.68;98054.25;5091788;28;19964;-96
2023/10/23 01:54:41;;;;;;;;;;;;;;;29.60;23.66;98052.34;5102464;28;19962;-96
2023/10/23 01:57:07;;;;;;;;;;;;;;;29.63;23.51;98045.75;5093176;28;19924;-96
2023/10/23 01:59:33;;;;;;;;;;;;;;;29.63;23.45;98053.47;5090262;28;19920;-96
2023/10/23 02:01:59;;;;;;;;;;;;;;;29.69;23.77;98060.84;5091637;28;19922;-96
2023/10/23 02:04:25;;;;;;;;;;;;;;;29.80;23.42;98051.91;5092654;28;20302;-96
2023/10/23 02:06:51;;;;;;;;;;;;;;;29.75;23.41;98050.47;5090486;28;19960;-95
2023/10/23 02:09:17;;;;;;;;;;;;;;;29.63;23.41;98042.94;5086124;28;19928;-95
2023/10/23 02:11:44;;;;;;;;;;;;;;;29.66;23.26;98052.53;5089343;28;19966;-95
2023/10/23 02:14:10;;;;;;;;;;;;;;;29.77;23.25;98052.84;5089370;28;19969;-95
2023/10/23 02:16:36;;;;;;;;;;;;;;;29.82;23.12;98060.72;5081199;28;20384;-95
2023/10/23 02:19:02;;;;;;;;;;;;;;;29.60;23.48;98068.53;5088863;28;19920;-96
2023/10/23 02:21:28;;;;;;;;;;;;;;;29.54;23.54;98065.56;5093752;28;19981;-96
2023/10/23 02:23:54;;;;;;;;;;;;;;;29.70;23.52;98058.81;5076908;28;19986;-95
2023/10/23 02:26:20;;;;;;;;;;;;;;;29.79;23.42;98065.28;5080906;28;19928;-96
2023/10/23 02:28:46;;;;;;;;;;;;;;;29.60;23.39;98066.50;5084215;28;19916;-95
2023/10/23 02:31:12;;;;;;;;;;;;;;;29.58;23.43;98057.72;5088153;28;19929;-96
2023/10/23 02:33:38;;;;;;;;;;;;;;;29.51;23.45;98063.69;5089143;28;19920;-95
2023/10/23 02:36:04;;;;;;;;;;;;;;;29.50;23.51;98056.44;5076498;28;20420;-95
2023/10/23 02:38:30;;;;;;;;;;;;;;;29.47;23.48;98060.22;5087472;28;19973;-96
2023/10/23 02:40:56;;;;;;;;;;;;;;;29.27;23.66;98060.69;5081454;28;19916;-96
2023/10/23 02:43:22;;;;;;;;;;;;;;;29.18;23.88;98060.69;5080956;28;19920;-96
2023/10/23 02:45:48;;;;;;;;;;;;;;;29.32;23.72;98060.06;5083742;28;19920;-96
2023/10/23 02:48:17;;;;;;;;;;;;;;;29.26;24.04;98059.13;5077012;28;19927;-94
2023/10/23 02:50:53;;;;;;;;;;;;;;;29.32;24.06;98053.63;5090775;28;19920;-96
2023/10/23 02:53:19;;;;;;;;;;;;;;;29.32;23.65;98062.88;5097054;28;20399;-96
2023/10/23 02:55:45;;;;;;;;;;;;;;;29.20;24.16;98058.16;5079380;28;19920;-95
2023/10/23 02:58:11;;;;;;;;;;;;;;;29.30;23.46;98064.63;5077797;28;19927;-95
2023/10/23 03:00:37;;;;;;;;;;;;;;;29.14;23.79;98071.34;5082108;28;19924;-95
2023/10/23 03:03:03;;;;;;;;;;;;;;;29.20;23.73;98063.03;5081402;28;19967;-94
2023/10/23 03:05:29;;;;;;;;;;;;;;;29.17;23.76;98058.28;5075246;28;19928;-95
2023/10/23 03:07:55;;;;;;;;;;;;;;;28.96;24.03;98060.00;5083114;28;19924;-95
2023/10/23 03:10:21;;;;;;;;;;;;;;;28.69;24.40;98071.22;5086081;28;20402;-95
2023/10/23 03:12:48;;;;;;;;;;;;;;;28.73;24.20;98063.34;5080084;28;19966;-95
2023/10/23 03:15:16;;;;;;;;;;;;;;;28.67;24.09;98065.25;5084307;28;19962;-95
2023/10/23 03:17:42;;;;;;;;;;;;;;;28.84;23.72;98068.59;5079427;28;19932;-95
2023/10/23 03:20:08;;;;;;;;;;;;;;;28.90;23.66;98061.06;5082293;28;20019;-95
2023/10/23 03:22:34;;;;;;;;;;;;;;;29.02;23.71;98060.94;5082955;28;20376;-96
2023/10/23 03:25:00;;;;;;;;;;;;;;;28.81;23.08;98064.66;5078809;28;20463;-95
2023/10/23 03:27:26;;;;;;;;;;;;;;;28.73;23.43;98066.19;5074231;28;20007;-95
2023/10/23 03:29:52;;;;;;;;;;;;;;;28.59;23.91;98061.91;5082215;28;20010;-96
2023/10/23 03:32:18;;;;;;;;;;;;;;;28.63;23.61;98064.59;5088457;28;20382;-96
2023/10/23 03:34:45;;;;;;;;;;;;;;;28.68;23.69;98067.59;5087504;28;20007;-96
2023/10/23 03:37:11;;;;;;;;;;;;;;;28.58;23.73;98065.19;5087752;28;19924;-96
2023/10/23 03:39:37;;;;;;;;;;;;;;;28.52;23.86;98067.03;5079208;28;20419;-96
2023/10/23 03:42:03;;;;;;;;;;;;;;;28.51;24.01;98071.91;5095565;28;19958;-96
2023/10/23 03:44:29;;;;;;;;;;;;;;;28.50;23.69;98064.66;5090205;28;19927;-96
2023/10/23 03:46:55;;;;;;;;;;;;;;;28.57;23.58;98075.69;5090185;28;19920;-96
2023/10/23 03:49:21;;;;;;;;;;;;;;;28.46;23.81;98069.69;5096865;28;19942;-96
2023/10/23 03:51:47;;;;;;;;;;;;;;;28.60;23.54;98062.69;5076706;28;19916;-95
2023/10/23 03:54:13;;;;;;;;;;;;;;;28.72;23.34;98070.28;5079077;28;20283;-96
2023/10/23 03:56:39;;;;;;;;;;;;;;;28.75;23.37;98070.13;5077629;28;19928;-95
2023/10/23 03:59:05;;;;;;;;;;;;;;;28.67;23.42;98062.41;5084502;28;19920;-96
2023/10/23 04:01:31;;;;;;;;;;;;;;;28.57;23.80;98067.22;5077843;28;19973;-96
2023/10/23 04:03:57;;;;;;;;;;;;;;;28.44;23.81;98066.53;5089957;28;20007;-96
2023/10/23 04:06:23;;;;;;;;;;;;;;;28.46;24.32;98052.72;5080332;28;20030;-94
2023/10/23 04:08:52;;;;;;;;;;;;;;;28.58;24.00;98057.50;5080649;28;19924;-96
2023/10/23 04:11:18;;;;;;;;;;;;;;;28.51;23.85;98059.81;5080524;28;19962;-95
2023/10/23 04:13:44;;;;;;;;;;;;;;;28.38;23.90;98059.13;5078259;28;19943;-96
2023/10/23 04:16:10;;;;;;;;;;;;;;;28.55;23.59;98063.28;5077163;28;19916;-92
2023/10/23 04:18:36;;;;;;;;;;;;;;;28.71;23.25;98063.03;5096349;28;19947;-96
2023/10/23 04:21:06;;;;;;;;;;;;;;;28.83;22.94;98064.97;5114731;28;19975;-95
2023/10/23 04:26:45;;;;;;;;;;;;;;;28.57;23.75;98067.22;5078902;28;19958;-92
2023/10/23 04:29:11;;;;;;;;;;;;;;;28.76;23.55;98062.44;5084589;28;19908;-90
2023/10/23 04:31:37;;;;;;;;;;;;;;;28.33;23.53;98069.00;5082633;28;19956;-96
2023/10/23 04:34:04;;;;;;;;;;;;;;;28.29;23.75;98064.72;5094150;28;19963;-96
2023/10/23 04:36:30;;;;;;;;;;;;;;;28.38;24.01;98074.03;5096284;28;19908;-86
2023/10/23 04:38:56;;;;;;;;;;;;;;;28.62;23.37;98080.75;5093252;28;19913;-92
2023/10/23 04:41:22;;;;;;;;;;;;;;;28.82;23.24;98079.56;5084482;28;19976;-96
2023/10/23 04:43:48;;;;;;;;;;;;;;;28.85;23.17;98084.28;5074100;28;20020;-95
2023/10/23 04:46:14;;;;;;;;;;;;;;;28.65;23.18;98085.50;5077364;28;19962;-95
2023/10/23 04:48:40;;;;;;;;;;;;;;;28.30;23.96;98094.53;5075852;28;19983;-96
2023/10/23 04:51:06;;;;;;;;;;;;;;;28.26;23.98;98083.41;5057226;28;20010;-95
2023/10/23 04:53:32;;;;;;;;;;;;;;;28.27;24.38;98090.59;5043952;28;19924;-93
2023/10/23 04:55:58;;;;;;;;;;;;;;;28.54;23.98;98099.19;5064038;28;19927;-94
2023/10/23 04:58:24;;;;;;;;;;;;;;;28.71;23.74;98102.59;5069495;28;19974;-94
2023/10/23 05:00:51;;;;;;;;;;;;;;;28.74;23.78;98113.00;5061090;28;20315;-95
2023/10/23 05:03:17;;;;;;;;;;;;;;;28.84;23.49;98119.47;5072075;28;19962;-95
2023/10/23 05:05:49;;;;;;;;;;;;;;;28.61;23.87;98121.56;5076190;28;20292;-95
2023/10/23 05:08:15;;;;;;;;;;;;;;;28.67;24.17;98124.56;5093827;28;20291;-96
2023/10/23 05:10:42;;;;;;;;;;;;;;;28.63;23.77;98121.13;5093491;28;19916;-95
2023/10/23 05:13:08;;;;;;;;;;;;;;;28.50;24.22;98128.84;5094106;28;19912;-95
2023/10/23 05:15:34;;;;;;;;;;;;;;;28.59;23.94;98123.28;5087712;28;19921;-95
2023/10/23 05:18:00;;;;;;;;;;;;;;;28.74;23.47;98127.91;5077156;28;19917;-95
2023/10/23 05:20:26;;;;;;;;;;;;;;;28.74;23.85;98132.78;5077181;28;20322;-95
2023/10/23 05:22:52;;;;;;;;;;;;;;;28.92;23.95;98132.03;5080711;28;20014;-95
2023/10/23 05:25:18;;;;;;;;;;;;;;;29.15;23.55;98140.75;5064019;28;19917;-95
2023/10/23 05:27:44;;;;;;;;;;;;;;;29.13;23.59;98146.09;5077088;28;19917;-95
2023/10/23 05:30:10;;;;;;;;;;;;;;;28.97;23.87;98145.56;5077033;28;19970;-95
2023/10/23 05:32:36;;;;;;;;;;;;;;;28.92;24.03;98152.63;5065657;28;20011;-96
2023/10/23 05:35:03;;;;;;;;;;;;;;;28.79;24.22;98148.31;5077401;28;19928;-96
2023/10/23 05:37:30;;;;;;;;;;;;;;;28.84;23.99;98151.34;5070375;28;19988;-96
2023/10/23 05:39:56;;;;;;;;;;;;;;;28.88;24.18;98157.63;5097339;28;19924;-96
2023/10/23 05:42:22;;;;;;;;;;;;;;;28.68;24.44;98158.00;5075491;28;19962;-96
2023/10/23 05:44:48;;;;;;;;;;;;;;;28.87;24.17;98161.69;5085000;28;19927;-96
2023/10/23 05:47:14;;;;;;;;;;;;;;;28.97;23.85;98166.16;5096805;28;19947;-91
2023/10/23 05:49:40;;;;;;;;;;;;;;;29.26;23.76;98172.25;5098600;28;19962;-96
2023/10/23 05:52:06;;;;;;;;;;;;;;;29.42;23.44;98171.97;5081813;28;19978;-96
2023/10/23 05:54:32;;;;;;;;;;;;;;;29.26;23.29;98177.91;5072804;28;19921;-96
2023/10/23 05:56:58;;;;;;;;;;;;;;;29.38;23.26;98167.72;5068951;28;19943;-96
2023/10/23 05:59:24;;;;;;;;;;;;;;;29.09;24.06;98175.78;5076643;28;19917;-95
2023/10/23 06:01:50;;;;;;;;;;;;;;;29.23;23.87;98178.84;5087765;28;19998;-96
2023/10/23 06:04:16;;;;;;;;;;;;;;;29.40;23.62;98182.97;5075624;28;19916;-94
2023/10/23 06:06:42;;;;;;;;;;;;;;;29.45;24.13;98186.44;5056813;28;19921;-96
2023/10/23 06:09:08;;;;;;;;;;;;;;;29.32;24.27;98187.34;5091550;28;19938;-96
2023/10/23 06:11:34;;;;;;;;;;;;;;;29.11;24.80;98191.03;5092971;28;19918;-96
2023/10/23 06:14:00;;;;;;;;;;;;;;;29.17;24.87;98194.03;5093480;28;19925;-96
2023/10/23 06:16:26;;;;;;;;;;;;;;;29.08;25.16;98200.41;5071848;28;20051;-96
2023/10/23 06:18:53;;;;;;;;;;;;;;;29.58;24.37;98198.41;5092249;28;19908;-86
2023/10/23 06:21:19;;;;;;;;;;;;;;;29.58;24.53;98192.75;5102112;28;19928;-86
2023/10/23 07:17:34;;;;;;;;;;;;;;;29.82;26.47;98205.88;1075254;23;20225;-96
2023/10/23 07:20:00;;;;;;;;;;;;;;;29.47;26.67;98201.69;4933850;29;19986;-96
2023/10/23 07:22:26;;;;;;;;;;;;;;;29.28;27.57;98200.06;4940503;29;19919;-96
2023/10/23 07:24:54;;;;;;;;;;;;;;;29.34;27.59;98196.16;4933969;29;19919;-96
2023/10/23 07:27:20;;;;;;;;;;;;;;;29.49;27.50;98207.66;4915372;29;19961;-96
2023/10/23 07:29:46;;;;;;;;;;;;;;;29.36;26.87;98201.31;4926652;29;19974;-96
2023/10/23 07:32:12;;;;;;;;;;;;;;;29.43;27.49;98199.00;4923346;29;19924;-96
2023/10/23 07:34:38;;;;;;;;;;;;;;;29.67;26.90;98198.41;4937868;29;20006;-96
2023/10/23 07:37:04;;;;;;;;;;;;;;;29.88;26.93;98211.69;4929745;29;19927;-96
2023/10/23 07:39:30;;;;;;;;;;;;;;;30.04;26.72;98217.03;4927116;29;19986;-96
2023/10/23 07:41:57;;;;;;;;;;;;;;;30.24;26.95;98217.38;4931854;29;19919;-96
2023/10/23 07:44:23;;;;;;;;;;;;;;;30.34;26.41;98218.19;4928198;29;19923;-96
2023/10/23 07:46:50;;;;;;;;;;;;;;;30.39;26.08;98215.47;4927334;29;20355;-96
2023/10/23 07:49:16;;;;;;;;;;;;;;;30.48;26.93;98215.47;4927333;29;19930;-96
2023/10/23 07:51:42;;;;;;;;;;;;;;;30.39;27.01;98223.97;4926396;29;20001;-96
2023/10/23 07:54:08;;;;;;;;;;;;;;;30.75;27.39;98217.47;4923667;29;19919;-96
2023/10/23 07:56:34;;;;;;;;;;;;;;;30.41;27.21;98215.78;4919274;29;19949;-96
2023/10/23 07:59:00;;;;;;;;;;;;;;;30.20;27.09;98213.13;4919087;29;19923;-96
2023/10/23 08:01:26;;;;;;;;;;;;;;;30.78;26.06;98222.94;4919135;29;19975;-96
2023/10/23 08:03:52;;;;;;;;;;;;;;;31.19;27.06;98227.09;4918692;29;20005;-96
2023/10/23 08:06:18;;;;;;;;;;;;;;;30.85;26.21;98219.00;4918169;29;20343;-94
2023/10/23 08:08:45;;;;;;;;;;;;;;;30.20;27.30;98221.63;4918107;29;20044;-94
2023/10/23 08:11:12;;;;;;;;;;;;;;;30.17;26.62;98233.88;4917973;29;19977;-94
2023/10/23 08:13:39;;;;;;;;;;;;;;;30.41;26.80;98229.19;4918402;29;19997;-95
2023/10/23 08:16:05;;;;;;;;;;;;;;;30.56;27.16;98222.38;4918007;29;20029;-95
2023/10/23 08:18:32;;;;;;;;;;;;;;;31.06;27.33;98235.06;4917687;29;19923;-95
2023/10/23 08:20:58;;;;;;;;;;;;;;;31.59;25.36;98231.66;4917460;29;20017;-95
2023/10/23 08:23:24;;;;;;;;;;;;;;;31.44;25.88;98228.75;4910408;29;19987;-94
2023/10/23 08:25:50;;;;;;;;;;;;;;;31.48;25.66;98223.69;4900665;29;20491;-94
2023/10/23 08:28:16;;;;;;;;;;;;;;;31.46;26.53;98223.38;4917658;29;20005;-95
2023/10/23 08:30:42;;;;;;;;;;;;;;;31.21;25.72;98223.78;4918544;29;20050;-95
2023/10/23 08:33:09;;;;;;;;;;;;;;;31.44;26.31;98216.63;4917941;29;19974;-93
2023/10/23 08:35:35;;;;;;;;;;;;;;;31.48;26.35;98217.22;4917677;29;20380;-94
2023/10/23 08:38:01;;;;;;;;;;;;;;;31.61;26.42;98220.59;4917641;29;19926;-94
2023/10/23 08:40:27;;;;;;;;;;;;;;;31.79;26.35;98212.75;4917453;29;19915;-94
2023/10/23 08:42:53;;;;;;;;;;;;;;;31.69;25.81;98208.44;4898874;29;19926;-94
2023/10/23 08:45:19;;;;;;;;;;;;;;;31.75;28.06;98206.47;4916368;29;19919;-93
2023/10/23 08:47:45;;;;;;;;;;;;;;;32.13;25.90;98210.63;4917642;29;20442;-93
2023/10/23 08:50:11;;;;;;;;;;;;;;;32.39;26.72;98218.16;4917605;29;20343;-93
2023/10/23 08:52:45;;;;;;;;;;;;;;;32.81;25.21;98209.38;4917154;29;19919;-93
2023/10/23 08:55:11;;;;;;;;;;;;;;;32.48;25.38;98208.75;4917286;29;19935;-93
2023/10/23 08:57:40;;;;;;;;;;;;;;;32.61;25.97;98223.47;4917531;29;19919;-93
2023/10/23 09:00:06;;;;;;;;;;;;;;;33.09;26.09;98227.72;4900338;29;19922;-93
2023/10/23 09:02:33;;;;;;;;;;;;;;;33.47;24.77;98237.38;4917416;29;20018;-93
2023/10/23 09:04:59;;;;;;;;;;;;;;;33.70;24.17;98236.44;4917947;29;19930;-93
2023/10/23 09:07:25;;;;;;;;;;;;;;;33.80;24.01;98235.00;4917306;29;19927;-93
2023/10/23 09:09:51;;;;;;;;;;;;;;;33.94;23.65;98232.09;4917192;29;20394;-93
2023/10/23 09:12:33;;;;;;;;;;;;;;;33.96;22.75;98245.84;4917315;29;19975;-93
2023/10/23 09:15:20;;;;;;;;;;;;;;;33.23;24.70;98246.06;4917313;29;20340;-93
2023/10/23 09:17:48;;;;;;;;;;;;;;;33.37;23.01;98248.09;4917179;29;19923;-93
2023/10/23 09:20:20;;;;;;;;;;;;;;;33.33;24.61;98248.28;4917284;29;19923;-93
2023/10/23 09:22:48;;;;;;;;;;;;;;;33.73;23.26;98255.38;4929067;29;19923;-93
2023/10/23 09:25:15;;;;;;;;;;;;;;;33.51;23.33;98255.03;4917087;29;19919;-92
2023/10/23 09:27:41;;;;;;;;;;;;;;;33.46;22.98;98247.97;4917275;29;19927;-93
2023/10/23 09:30:08;;;;;;;;;;;;;;;33.51;24.13;98246.50;4917268;29;20299;-93
2023/10/23 09:32:35;;;;;;;;;;;;;;;33.52;23.38;98245.19;4930015;29;19959;-92
2023/10/23 09:35:01;;;;;;;;;;;;;;;33.39;23.17;98252.03;4902604;29;19919;-92
2023/10/23 09:37:27;;;;;;;;;;;;;;;33.62;23.24;98250.31;4923128;29;20363;-93
2023/10/23 09:39:53;;;;;;;;;;;;;;;33.33;21.93;98239.75;4916957;29;20280;-92
2023/10/23 09:42:20;;;;;;;;;;;;;;;33.23;22.76;98240.38;4916765;29;19974;-93
2023/10/23 09:44:46;;;;;;;;;;;;;;;33.23;22.06;98240.38;4916448;29;19978;-94
2023/10/23 09:47:13;;;;;;;;;;;;;;;33.35;21.46;98236.44;4917252;29;19930;-93
2023/10/23 09:49:39;;;;;;;;;;;;;;;33.54;21.58;98231.31;4917305;29;19930;-93
2023/10/23 09:52:07;;;;;;;;;;;;;;;33.84;22.14;98229.91;4907252;29;20371;-93
2023/10/23 09:54:35;;;;;;;;;;;;;;;33.94;20.97;98225.63;4917481;29;20272;-93
2023/10/23 09:57:06;;;;;;;;;;;;;;;33.71;21.32;98229.44;4916135;29;20041;-93
2023/10/23 09:59:39;;;;;;;;;;;;;;;33.10;22.78;98232.13;4917724;29;19929;-93
2023/10/23 10:02:06;;;;;;;;;;;;;;;33.34;21.98;98220.59;4920353;29;19938;-93
2023/10/23 10:04:32;;;;;;;;;;;;;;;33.75;21.69;98212.97;4920222;29;19926;-94
2023/10/23 10:07:07;;;;;;;;;;;;;;;34.03;22.40;98214.88;4920358;29;19919;-93
2023/10/23 10:09:34;;;;;;;;;;;;;;;34.28;20.51;98207.69;4919898;29;19994;-94
2023/10/23 10:12:00;;;;;;;;;;;;;;;34.23;21.74;98213.31;4925051;29;20286;-93
2023/10/23 10:14:27;;;;;;;;;;;;;;;33.92;22.69;98213.94;4914766;29;20360;-93
2023/10/23 10:16:55;;;;;;;;;;;;;;;33.86;23.11;98207.41;4908758;29;19924;-92
2023/10/23 10:19:21;;;;;;;;;;;;;;;33.78;23.06;98209.09;4901039;29;19963;-93
2023/10/23 10:21:52;;;;;;;;;;;;;;;33.88;21.98;98199.91;4918295;29;19926;-94
2023/10/23 10:24:20;;;;;;;;;;;;;;;33.89;23.54;98206.38;4902953;29;19919;-94
2023/10/23 10:26:48;;;;;;;;;;;;;;;33.83;22.93;98197.00;4920072;29;19971;-93
2023/10/23 10:29:14;;;;;;;;;;;;;;;33.77;22.32;98193.31;4920651;29;19919;-94
2023/10/23 10:31:59;;;;;;;;;;;;;;;33.93;22.21;98196.38;4902009;29;19931;-93
2023/10/23 10:34:25;;;;;;;;;;;;;;;33.81;22.21;98193.88;4911818;29;19934;-93
2023/10/23 10:36:51;;;;;;;;;;;;;;;33.90;21.75;98191.66;4919476;29;20447;-92
2023/10/23 10:39:17;;;;;;;;;;;;;;;34.23;21.71;98197.00;4904264;29;19966;-94
2023/10/23 10:41:44;;;;;;;;;;;;;;;34.55;21.72;98192.16;4900674;29;20292;-93
2023/10/23 10:44:10;;;;;;;;;;;;;;;34.83;20.90;98192.44;4917154;29;19926;-91
2023/10/23 10:46:39;;;;;;;;;;;;;;;34.38;22.43;98191.22;4920026;29;19919;-92
2023/10/23 10:49:05;;;;;;;;;;;;;;;34.40;21.52;98186.53;4919252;29;20392;-93
2023/10/23 10:51:31;;;;;;;;;;;;;;;34.36;21.41;98180.28;4919374;29;20392;-93
2023/10/23 10:54:00;;;;;;;;;;;;;;;34.05;21.29;98177.38;4919493;29;20426;-93
2023/10/23 10:56:26;;;;;;;;;;;;;;;34.34;21.29;98179.22;4919610;29;19923;-92
2023/10/23 10:58:52;;;;;;;;;;;;;;;34.33;21.38;98180.53;4902488;29;19927;-93
2023/10/23 11:01:22;;;;;;;;;;;;;;;34.31;20.84;98177.41;4918532;29;20303;-93
2023/10/23 11:03:48;;;;;;;;;;;;;;;34.20;21.13;98178.03;4929768;29;20374;-92
2023/10/23 11:06:14;;;;;;;;;;;;;;;34.21;21.67;98178.81;4937985;29;20017;-92
2023/10/23 11:08:40;;;;;;;;;;;;;;;34.46;20.97;98169.50;4938354;29;19919;-93
2023/10/23 11:11:06;;;;;;;;;;;;;;;34.66;20.78;98175.94;4919724;29;19990;-93
2023/10/23 11:13:32;;;;;;;;;;;;;;;34.65;20.81;98171.53;4919174;29;20283;-93
2023/10/23 11:15:59;;;;;;;;;;;;;;;34.65;21.03;98171.53;4918930;29;19919;-92
2023/10/23 11:18:26;;;;;;;;;;;;;;;34.63;20.92;98153.38;4904114;29;20355;-93
2023/10/23 11:20:57;;;;;;;;;;;;;;;34.84;19.72;98160.56;4923578;29;19977;-92
2023/10/23 11:23:23;;;;;;;;;;;;;;;34.75;20.82;98157.88;4937973;29;19941;-92
2023/10/23 11:25:50;;;;;;;;;;;;;;;34.44;20.40;98158.59;4937998;29;20026;-92
2023/10/23 11:28:18;;;;;;;;;;;;;;;34.05;21.00;98152.47;4937288;29;20200;-93
2023/10/23 11:30:46;;;;;;;;;;;;;;;34.11;21.54;98161.09;4937743;29;19925;-93
2023/10/23 11:33:12;;;;;;;;;;;;;;;33.72;22.56;98156.97;4921801;29;20368;-93
2023/10/23 11:35:40;;;;;;;;;;;;;;;34.13;21.19;98152.81;4918290;29;20269;-92
2023/10/23 11:38:10;;;;;;;;;;;;;;;34.43;20.35;98156.25;4931372;29;19919;-92
2023/10/23 11:40:36;;;;;;;;;;;;;;;34.39;21.33;98147.13;4937699;29;20252;-92
2023/10/23 11:43:02;;;;;;;;;;;;;;;34.41;20.93;98150.25;4927739;29;19919;-92
2023/10/23 11:45:29;;;;;;;;;;;;;;;33.96;19.94;98148.97;4918365;29;19969;-92
2023/10/23 11:47:55;;;;;;;;;;;;;;;34.05;20.53;98154.56;4918319;29;19927;-92
2023/10/23 11:50:21;;;;;;;;;;;;;;;34.38;19.43;98154.91;4917840;29;20482;-92
2023/10/23 11:52:48;;;;;;;;;;;;;;;34.74;19.61;98151.41;4918421;29;19926;-92
2023/10/23 11:55:17;;;;;;;;;;;;;;;34.69;20.97;98162.75;4918850;29;20018;-93
2023/10/23 11:57:54;;;;;;;;;;;;;;;34.54;20.12;98162.88;4901346;29;20313;-92
2023/10/23 12:00:21;;;;;;;;;;;;;;;34.26;19.70;98161.00;4918326;29;19919;-92
2023/10/23 12:02:48;;;;;;;;;;;;;;;34.29;19.67;98165.69;4917388;29;20352;-91
2023/10/23 12:05:18;;;;;;;;;;;;;;;34.37;20.14;98158.25;4918033;29;19919;-92
2023/10/23 12:07:48;;;;;;;;;;;;;;;34.66;20.06;98155.97;4918139;29;19919;-92
2023/10/23 12:10:15;;;;;;;;;;;;;;;34.85;19.73;98155.59;4924728;29;20010;-92
2023/10/23 12:12:43;;;;;;;;;;;;;;;35.09;21.18;98153.25;4918686;29;19949;-92
2023/10/23 12:15:09;;;;;;;;;;;;;;;35.21;18.59;98152.81;4902398;29;19931;-92
2023/10/23 12:17:36;;;;;;;;;;;;;;;35.01;19.62;98157.84;4899350;29;19970;-91
2023/10/23 12:20:07;;;;;;;;;;;;;;;35.12;18.57;98155.88;4901280;29;19928;-91
2023/10/23 12:22:36;;;;;;;;;;;;;;;34.77;20.92;98148.81;4917233;29;19926;-92
2023/10/23 12:25:04;;;;;;;;;;;;;;;34.69;19.06;98140.72;4917659;29;19962;-92
2023/10/23 12:27:31;;;;;;;;;;;;;;;34.63;18.94;98142.75;4918507;29;20010;-91
2023/10/23 12:29:58;;;;;;;;;;;;;;;34.66;19.36;98138.88;4936733;29;19919;-92
2023/10/23 12:32:24;;;;;;;;;;;;;;;34.24;19.80;98140.78;4936597;29;19925;-92
2023/10/23 12:34:50;;;;;;;;;;;;;;;33.62;20.90;98133.56;4936782;29;19919;-92
2023/10/23 12:37:16;;;;;;;;;;;;;;;34.03;20.74;98134.31;4922825;29;19925;-91
2023/10/23 12:39:42;;;;;;;;;;;;;;;34.67;19.55;98140.44;4917496;29;20418;-92
2023/10/23 12:42:08;;;;;;;;;;;;;;;34.40;19.45;98143.00;4917659;29;19920;-92
2023/10/23 12:44:34;;;;;;;;;;;;;;;34.15;20.34;98135.22;4918229;29;19919;-93
2023/10/23 12:47:00;;;;;;;;;;;;;;;33.78;19.04;98144.38;4917244;29;19927;-92
2023/10/23 12:49:26;;;;;;;;;;;;;;;33.49;19.51;98132.31;4902289;29;19928;-92
2023/10/23 12:51:53;;;;;;;;;;;;;;;33.08;18.83;98134.31;4898852;29;19919;-93
2023/10/23 12:54:19;;;;;;;;;;;;;;;33.15;20.62;98128.19;4898711;29;19926;-92
2023/10/23 12:56:45;;;;;;;;;;;;;;;33.95;20.07;98136.81;4898612;29;20010;-93
2023/10/23 12:59:11;;;;;;;;;;;;;;;34.63;18.86;98133.41;4907442;29;19975;-92
2023/10/23 13:01:37;;;;;;;;;;;;;;;34.72;18.89;98122.59;4917721;29;19978;-92
2023/10/23 13:04:03;;;;;;;;;;;;;;;34.78;18.81;98122.63;4917391;29;19930;-92
2023/10/23 13:06:29;;;;;;;;;;;;;;;35.01;18.75;98127.19;4917433;29;19923;-93
2023/10/23 13:08:55;;;;;;;;;;;;;;;34.91;18.94;98113.66;4900242;29;20009;-92
2023/10/23 13:11:22;;;;;;;;;;;;;;;34.83;18.18;98115.38;4917303;29;19950;-92
2023/10/23 13:13:48;;;;;;;;;;;;;;;34.79;18.36;98114.84;4917398;29;20335;-92
2023/10/23 13:16:14;;;;;;;;;;;;;;;34.65;18.49;98108.00;4879743;29;20026;-91
2023/10/23 13:18:40;;;;;;;;;;;;;;;34.59;18.74;98107.16;4911118;29;19935;-92
2023/10/23 13:21:06;;;;;;;;;;;;;;;34.66;18.79;98101.78;4900296;29;20380;-91
2023/10/23 13:23:32;;;;;;;;;;;;;;;34.67;18.89;98100.50;4916949;29;19919;-92
2023/10/23 13:25:58;;;;;;;;;;;;;;;34.97;19.10;98105.91;4917272;29;19930;-91
2023/10/23 13:28:24;;;;;;;;;;;;;;;34.78;20.10;98104.72;4917271;29;19915;-92
2023/10/23 13:30:50;;;;;;;;;;;;;;;34.86;19.47;98102.97;4917059;29;19923;-91
2023/10/23 13:33:16;;;;;;;;;;;;;;;34.95;18.75;98103.56;4916992;29;19915;-92
2023/10/23 13:35:42;;;;;;;;;;;;;;;34.62;20.07;98094.75;4904879;29;20022;-92
2023/10/23 13:38:09;;;;;;;;;;;;;;;34.59;18.68;98102.25;4939764;29;20363;-92
2023/10/23 13:40:35;;;;;;;;;;;;;;;34.43;18.45;98099.22;4923830;29;19919;-89
2023/10/23 13:43:01;;;;;;;;;;;;;;;34.22;18.00;98095.66;4896929;29;20011;-90